createdAt,value
2023-05-13T00:02:10.276Z,97713.66
2023-05-13T00:07:11.505Z,97716.81
2023-05-13T00:12:12.783Z,97720.66
2023-05-13T00:17:14.188Z,97721.19
2023-05-13T00:22:15.462Z,97727.66
2023-05-13T00:27:16.687Z,97724.53
2023-05-13T00:32:17.954Z,97731.69
2023-05-13T00:37:19.297Z,97734.00
2023-05-13T00:42:20.528Z,97735.19
2023-05-13T00:47:21.762Z,97734.97
2023-05-13T00:52:23.055Z,97731.47
2023-05-13T00:57:24.362Z,97729.44
2023-05-13T01:02:25.640Z,97732.78
2023-05-13T01:07:26.956Z,97739.00
2023-05-13T01:12:28.208Z,97738.16
2023-05-13T01:17:29.600Z,97736.78
2023-05-13T01:22:31.061Z,97734.16
2023-05-13T01:27:32.383Z,97731.75
2023-05-13T01:32:33.705Z,97739.34
2023-05-13T01:37:34.986Z,97730.00
2023-05-13T01:42:36.265Z,97729.34
2023-05-13T01:47:37.585Z,97729.47
2023-05-13T01:52:38.912Z,97727.75
2023-05-13T01:57:40.370Z,97728.91
2023-05-13T02:02:41.716Z,97725.75
2023-05-13T02:07:43.112Z,97723.19
2023-05-13T02:12:44.933Z,97721.72
2023-05-13T02:17:46.354Z,97726.44
2023-05-13T02:22:47.600Z,97722.00
2023-05-13T02:27:48.816Z,97721.22
2023-05-13T02:32:50.138Z,97723.00
2023-05-13T02:42:52.770Z,97724.00
2023-05-13T02:47:54.184Z,97721.00
2023-05-13T02:52:55.529Z,97723.28
2023-05-13T02:57:56.962Z,97724.53
2023-05-13T03:02:58.513Z,97731.69
2023-05-13T03:08:00.027Z,97730.94
2023-05-13T03:13:01.260Z,97726.44
2023-05-13T03:18:02.532Z,97726.34
2023-05-13T03:23:03.847Z,97728.78
2023-05-13T03:28:05.339Z,97738.66
2023-05-13T03:33:06.901Z,97735.22
2023-05-13T03:38:08.131Z,97737.03
2023-05-13T03:43:09.362Z,97742.34
2023-05-13T03:48:10.661Z,97748.59
2023-05-13T03:53:12.219Z,97749.84
2023-05-13T03:58:14.431Z,97751.75
2023-05-13T04:03:19.369Z,97752.75
2023-05-13T04:08:21.042Z,97751.66
2023-05-13T04:13:22.526Z,97763.53
2023-05-13T04:18:23.881Z,97763.84
2023-05-13T04:23:25.119Z,97765.63
2023-05-13T04:28:26.348Z,97766.97
2023-05-13T04:33:27.616Z,97761.47
2023-05-13T04:38:28.861Z,97765.25
2023-05-13T04:43:30.311Z,97777.56
2023-05-13T04:48:31.662Z,97774.97
2023-05-13T04:53:33.397Z,97778.56
2023-05-13T04:58:34.612Z,97776.16
2023-05-13T05:03:35.902Z,97772.13
2023-05-13T05:08:37.293Z,97758.84
2023-05-13T05:13:38.666Z,97749.06
2023-05-13T05:18:43.452Z,97748.44
2023-05-13T05:23:44.943Z,97747.25
2023-05-13T05:28:46.239Z,97740.44
2023-05-13T05:33:47.550Z,97744.34
2023-05-13T05:38:48.932Z,97736.03
2023-05-13T05:43:50.190Z,97745.94
2023-05-13T05:48:51.483Z,97733.03
2023-05-13T05:53:52.750Z,97739.50
2023-05-13T05:58:54.028Z,97729.22
2023-05-13T06:03:55.502Z,97728.97
2023-05-13T06:08:56.804Z,97734.00
2023-05-13T06:13:58.064Z,97733.69
2023-05-13T06:18:59.425Z,97729.94
2023-05-13T06:24:02.785Z,97737.59
2023-05-13T06:29:04.053Z,97742.31
2023-05-13T06:34:05.531Z,97752.84
2023-05-13T06:39:06.795Z,97758.41
2023-05-13T06:44:08.041Z,97761.50
2023-05-13T06:49:09.272Z,97762.38
2023-05-13T06:54:10.623Z,97764.03
2023-05-13T06:59:12.112Z,97767.53
2023-05-13T07:04:13.448Z,97780.53
2023-05-13T07:09:14.778Z,97778.59
2023-05-13T07:14:16.055Z,97784.00
2023-05-13T07:19:17.335Z,97775.44
2023-05-13T07:24:18.616Z,97788.91
2023-05-13T07:29:19.895Z,97780.69
2023-05-13T07:34:21.195Z,97778.94
2023-05-13T07:39:22.565Z,97780.91
2023-05-13T07:44:23.852Z,97789.06
2023-05-13T07:49:25.144Z,97782.91
2023-05-13T07:54:26.406Z,97775.06
2023-05-13T07:59:27.712Z,97780.75
2023-05-13T08:04:29.002Z,97771.13
2023-05-13T08:09:30.221Z,97771.41
2023-05-13T08:14:31.438Z,97767.56
2023-05-13T08:19:32.662Z,97762.91
2023-05-13T08:24:34.002Z,97763.56
2023-05-13T08:29:35.508Z,97770.69
2023-05-13T08:34:36.883Z,97769.00
2023-05-13T08:39:38.116Z,97763.28
2023-05-13T08:44:39.539Z,97775.16
2023-05-13T08:49:40.815Z,97772.16
2023-05-13T08:54:42.063Z,97764.59
2023-05-13T08:59:43.353Z,97782.91
2023-05-13T09:04:44.638Z,97773.56
2023-05-13T09:09:45.957Z,97771.13
2023-05-13T09:14:47.233Z,97781.31
2023-05-13T09:19:48.558Z,97778.09
2023-05-13T09:24:49.956Z,97787.31
2023-05-13T09:29:51.208Z,97785.16
2023-05-13T09:34:52.424Z,97791.69
2023-05-13T09:39:57.805Z,97778.09
2023-05-13T09:44:59.078Z,97788.22
2023-05-13T09:50:00.306Z,97783.66
2023-05-13T09:55:05.121Z,97786.00
2023-05-13T10:00:06.847Z,97782.09
2023-05-13T10:05:10.478Z,97789.63
2023-05-13T10:10:11.839Z,97782.53
2023-05-13T10:15:13.143Z,97784.75
2023-05-13T10:20:14.380Z,97774.69
2023-05-13T10:25:15.600Z,97764.94
2023-05-13T10:30:16.995Z,97767.94
2023-05-13T10:35:18.222Z,97763.72
2023-05-13T10:40:19.712Z,97771.28
2023-05-13T10:45:21.144Z,97769.59
2023-05-13T10:50:23.073Z,97768.31
2023-05-13T10:55:24.862Z,97766.84
2023-05-13T11:00:26.153Z,97770.13
2023-05-13T11:05:27.396Z,97773.75
2023-05-13T11:10:30.504Z,97771.91
2023-05-13T11:15:31.767Z,97778.16
2023-05-13T11:20:45.297Z,97778.75
2023-05-13T11:25:52.796Z,97770.22
2023-05-13T11:30:55.148Z,97756.59
2023-05-13T11:35:56.662Z,97748.22
2023-05-13T11:40:57.904Z,97743.69
2023-05-13T11:45:59.214Z,97740.53
2023-05-13T11:51:00.452Z,97740.91
2023-05-13T11:56:01.724Z,97733.69
2023-05-13T12:01:03.002Z,97741.25
2023-05-13T12:06:05.481Z,97726.03
2023-05-13T12:11:10.093Z,97715.66
2023-05-13T12:16:11.366Z,97715.78
2023-05-13T12:21:12.648Z,97717.47
2023-05-13T12:26:13.867Z,97712.81
2023-05-13T12:31:15.091Z,97706.41
2023-05-13T12:36:16.444Z,97715.59
2023-05-13T12:41:17.715Z,97728.06
2023-05-13T12:46:19.051Z,97726.22
2023-05-13T12:51:20.356Z,97738.28
2023-05-13T13:01:23.695Z,97731.94
2023-05-13T13:06:25.034Z,97734.03
2023-05-13T13:11:26.449Z,97735.50
2023-05-13T13:16:27.710Z,97729.34
2023-05-13T13:21:29.025Z,97727.56
2023-05-13T13:26:30.516Z,97726.06
2023-05-13T13:31:31.828Z,97724.56
2023-05-13T13:36:33.114Z,97720.78
2023-05-13T13:41:34.414Z,97708.41
2023-05-13T13:46:35.758Z,97714.75
2023-05-13T13:51:37.028Z,97721.97
2023-05-13T13:56:38.271Z,97722.59
2023-05-13T14:01:40.359Z,97720.81
2023-05-13T14:06:42.398Z,97708.03
2023-05-13T14:11:43.637Z,97705.53
2023-05-13T14:16:44.952Z,97701.00
2023-05-13T14:21:46.290Z,97703.56
2023-05-13T14:26:47.596Z,97704.84
2023-05-13T14:31:48.846Z,97707.09
2023-05-13T14:36:50.127Z,97706.09
2023-05-13T14:41:51.369Z,97721.50
2023-05-13T14:46:52.755Z,97705.78
2023-05-13T14:51:54.068Z,97702.41
2023-05-13T14:56:55.372Z,97691.88
2023-05-13T15:01:57.454Z,97691.91
2023-05-13T15:06:59.270Z,97686.28
2023-05-13T15:12:00.605Z,97682.22
2023-05-13T15:17:01.982Z,97684.22
2023-05-13T15:22:05.199Z,97685.75
2023-05-13T15:27:06.616Z,97673.66
2023-05-13T15:32:07.901Z,97670.22
2023-05-13T15:37:09.181Z,97661.19
2023-05-13T15:42:10.449Z,97657.44
2023-05-13T15:47:11.789Z,97658.59
2023-05-13T15:52:14.653Z,97651.41
2023-05-13T15:57:18.152Z,97652.59
2023-05-13T16:02:19.537Z,97648.59
2023-05-13T16:07:20.902Z,97646.94
2023-05-13T16:12:22.212Z,97639.19
2023-05-13T16:17:23.463Z,97626.69
2023-05-13T16:22:24.793Z,97621.41
2023-05-13T16:27:26.372Z,97614.50
2023-05-13T16:32:27.637Z,97612.28
2023-05-13T16:37:28.881Z,97594.06
2023-05-13T16:42:31.259Z,97600.47
2023-05-13T16:47:32.604Z,97593.13
2023-05-13T16:52:34.184Z,97588.81
2023-05-13T16:57:35.591Z,97584.88
2023-05-13T17:02:37.172Z,97578.38
2023-05-13T17:07:38.508Z,97572.44
2023-05-13T17:12:39.753Z,97574.59
2023-05-13T17:17:41.121Z,97577.50
2023-05-13T17:22:47.057Z,97583.50
2023-05-13T17:27:48.334Z,97592.72
2023-05-13T17:32:49.745Z,97602.47
2023-05-13T17:37:51.287Z,97606.53
2023-05-13T17:42:53.024Z,97616.50
2023-05-13T17:47:54.368Z,97611.59
2023-05-13T17:52:55.720Z,97608.25
2023-05-13T17:57:57.048Z,97624.19
2023-05-13T18:02:58.373Z,97622.88
2023-05-13T18:07:59.760Z,97629.91
2023-05-13T18:13:01.044Z,97637.16
2023-05-13T18:18:03.723Z,97649.41
2023-05-13T18:23:05.207Z,97663.13
2023-05-13T18:28:06.626Z,97668.91
2023-05-13T18:33:08.040Z,97685.44
2023-05-13T18:38:09.469Z,97693.56
2023-05-13T18:43:10.730Z,97704.88
2023-05-13T18:48:12.007Z,97705.41
2023-05-13T18:53:13.399Z,97715.94
2023-05-13T18:58:14.835Z,97716.75
2023-05-13T19:03:16.325Z,97728.97
2023-05-13T19:08:18.018Z,97750.34
2023-05-13T19:13:21.159Z,97757.78
2023-05-13T19:18:22.468Z,97770.81
2023-05-13T19:23:23.760Z,97776.31
2023-05-13T19:28:25.322Z,97783.84
2023-05-13T19:33:26.561Z,97779.72
2023-05-13T19:38:27.828Z,97776.53
2023-05-13T19:43:29.071Z,97774.59
2023-05-13T19:48:30.773Z,97779.91
2023-05-13T19:53:32.106Z,97782.91
2023-05-13T19:58:33.350Z,97779.97
2023-05-13T20:03:34.707Z,97779.34
2023-05-13T20:08:36.146Z,97778.44
2023-05-13T20:13:37.413Z,97783.09
2023-05-13T20:18:38.889Z,97781.59
2023-05-13T20:23:41.569Z,97777.47
2023-05-13T20:28:42.962Z,97784.84
2023-05-13T20:33:44.288Z,97789.97
2023-05-13T20:38:45.556Z,97794.94
2023-05-13T20:43:46.772Z,97794.56
2023-05-13T20:48:48.045Z,97787.94
2023-05-13T20:53:49.290Z,97790.56
2023-05-13T20:58:50.555Z,97789.13
2023-05-13T21:03:51.826Z,97789.41
2023-05-13T21:08:53.122Z,97792.00
2023-05-13T21:13:54.429Z,97791.00
2023-05-13T21:18:55.872Z,97791.75
2023-05-13T21:23:57.309Z,97779.44
2023-05-13T21:28:58.625Z,97779.09
2023-05-13T21:33:59.962Z,97782.69
2023-05-13T21:39:01.667Z,97771.88
2023-05-13T21:44:03.118Z,97776.75
2023-05-13T21:49:04.594Z,97768.25
2023-05-13T21:54:06.049Z,97771.19
2023-05-13T21:59:07.283Z,97774.63
2023-05-13T22:04:08.991Z,97764.53
2023-05-13T22:09:10.831Z,97767.63
2023-05-13T22:14:12.083Z,97756.16
2023-05-13T22:19:13.435Z,97770.31
2023-05-13T22:24:14.932Z,97752.78
2023-05-13T22:29:16.238Z,97753.69
2023-05-13T22:34:17.535Z,97753.72
2023-05-13T22:39:18.824Z,97756.00
2023-05-13T22:44:20.315Z,97757.09
2023-05-13T22:49:21.564Z,97753.16
2023-05-13T22:54:22.849Z,97757.78
2023-05-13T22:59:24.177Z,97751.22
2023-05-13T23:04:25.630Z,97749.19
2023-05-13T23:09:26.956Z,97746.31
2023-05-13T23:14:30.015Z,97735.66
2023-05-13T23:19:31.318Z,97736.09
2023-05-13T23:24:32.639Z,97737.72
2023-05-13T23:29:33.923Z,97732.66
2023-05-13T23:34:35.254Z,97739.03
2023-05-13T23:39:36.569Z,97741.13
2023-05-13T23:44:37.811Z,97740.06
2023-05-13T23:49:39.204Z,97734.13
2023-05-13T23:54:40.725Z,97733.28
2023-05-13T23:59:42.078Z,97735.09
